Time;durP1;ratioP1;P1;durP2;ratioP2;P2;SDS_P1;SDS_P2;PMS_P1;PMS_P2;Temp;Humidity;BMP_temperature;BMP_pressure;BME280_temperature;BME280_humidity;BME280_pressure;Samples;Min_cycle;Max_cycle;Signal;HPM_P1;HPM_P2
2022/07/14 00:02:26;;;;;;;30.92;15.95;;;;;;;26.97;33.41;98726.72;5042557;28;20183;-75
2022/07/14 00:04:53;;;;;;;25.17;13.45;;;;;;;27.17;33.42;98723.81;5076077;28;20499;-77
2022/07/14 00:07:19;;;;;;;25.95;11.60;;;;;;;27.00;32.72;98712.53;5043030;28;20134;-75
2022/07/14 00:09:45;;;;;;;23.17;12.48;;;;;;;26.99;33.20;98710.88;5058861;28;20193;-75
2022/07/14 00:12:11;;;;;;;23.55;11.55;;;;;;;26.98;31.64;98712.81;5044079;28;20047;-77
2022/07/14 00:14:37;;;;;;;25.30;11.02;;;;;;;27.17;32.68;98710.19;5081175;28;20059;-78
2022/07/14 00:17:04;;;;;;;25.95;9.05;;;;;;;27.14;31.74;98705.31;5080514;28;20118;-74
2022/07/14 00:19:30;;;;;;;22.15;9.02;;;;;;;27.22;31.68;98701.94;5078692;28;20124;-76
2022/07/14 00:21:56;;;;;;;26.33;9.88;;;;;;;27.25;32.13;98695.91;5045663;28;20078;-76
2022/07/14 00:24:22;;;;;;;31.58;8.52;;;;;;;27.28;31.67;98703.53;5045982;28;20073;-75
2022/07/14 00:26:48;;;;;;;27.25;7.90;;;;;;;27.32;32.07;98696.41;5062262;28;20134;-75
2022/07/14 00:29:15;;;;;;;27.48;7.78;;;;;;;27.36;32.70;98698.28;5079081;28;20492;-75
2022/07/14 00:31:43;;;;;;;30.75;8.38;;;;;;;27.37;32.92;98693.66;5100153;28;20035;-76
2022/07/14 00:34:12;;;;;;;24.13;7.53;;;;;;;27.39;32.40;98694.16;5080724;28;20062;-76
2022/07/14 00:36:38;;;;;;;32.05;8.38;;;;;;;27.39;32.24;98688.69;5080824;28;20043;-75
2022/07/14 00:39:03;;;;;;;28.30;8.57;;;;;;;27.37;32.07;98693.66;5046246;28;20515;-77
2022/07/14 00:41:29;;;;;;;28.50;11.20;;;;;;;27.28;32.64;98679.00;5061920;28;20538;-78
2022/07/14 00:43:55;;;;;;;30.88;11.45;;;;;;;27.30;32.34;98676.78;5063582;28;20039;-77
2022/07/14 00:46:21;;;;;;;33.72;11.25;;;;;;;27.32;32.55;98667.25;5080781;28;20130;-78
2022/07/14 00:48:47;;;;;;;29.30;10.73;;;;;;;27.33;32.15;98666.13;5079565;28;20184;-78
2022/07/14 00:51:14;;;;;;;32.10;11.32;;;;;;;27.31;32.34;98673.78;5052484;27;20135;-77
2022/07/14 00:53:41;;;;;;;31.15;10.23;;;;;;;27.31;32.74;98667.50;5073845;27;20059;-77
2022/07/14 00:56:07;;;;;;;34.60;9.35;;;;;;;27.32;32.66;98658.25;5070865;28;20396;-78
2022/07/14 00:58:33;;;;;;;17.00;7.50;;;;;;;27.29;32.58;98659.63;5092278;28;20043;-77
2022/07/14 01:00:59;;;;;;;20.40;6.88;;;;;;;27.13;33.07;98651.88;5079230;28;20130;-77
2022/07/14 01:03:26;;;;;;;20.23;6.20;;;;;;;27.27;32.98;98659.13;5078122;28;20552;-77
2022/07/14 01:05:53;;;;;;;18.15;6.00;;;;;;;27.07;33.17;98658.47;5078434;28;20400;-77
2022/07/14 01:08:19;;;;;;;14.30;6.05;;;;;;;27.00;32.91;98666.97;5045788;28;20039;-77
2022/07/14 01:10:50;;;;;;;;;;;;;;;27.37;32.79;98656.25;5081231;28;20059;-76
2022/07/14 01:13:16;;;;;;;16.83;6.15;;;;;;;26.97;33.56;98658.59;5062532;28;20347;-77
2022/07/14 01:15:42;;;;;;;15.93;5.85;;;;;;;26.95;33.16;98658.88;5062305;28;20096;-78
2022/07/14 01:18:10;;;;;;;27.83;7.53;;;;;;;26.91;33.44;98663.25;5062511;28;20560;-76
2022/07/14 01:20:37;;;;;;;27.65;9.80;;;;;;;26.91;33.97;98665.19;5062549;28;20059;-76
2022/07/14 01:23:03;;;;;;;25.05;8.10;;;;;;;26.56;35.90;98660.00;5079732;28;20044;-75
2022/07/14 01:25:33;;;;;;;17.52;7.30;;;;;;;26.69;35.50;98665.66;5081979;28;20134;-78
2022/07/14 01:28:04;;;;;;;30.80;7.10;;;;;;;26.60;35.70;98650.97;5100523;28;20048;-76
2022/07/14 01:30:30;;;;;;;29.35;7.32;;;;;;;26.62;35.71;98654.22;5070530;28;20124;-76
2022/07/14 01:32:56;;;;;;;21.45;6.72;;;;;;;26.49;36.14;98658.41;5104340;28;20063;-76
2022/07/14 01:35:24;;;;;;;26.58;6.93;;;;;;;26.34;35.94;98642.19;5090292;28;20039;-76
2022/07/14 01:37:50;;;;;;;23.63;6.82;;;;;;;26.39;36.36;98661.22;5086510;28;20036;-76
2022/07/14 01:40:16;;;;;;;23.23;6.82;;;;;;;26.18;36.76;98667.91;5114543;28;20070;-75
2022/07/14 01:42:42;;;;;;;20.40;7.07;;;;;;;26.02;36.67;98643.78;5096820;28;20052;-75
2022/07/14 01:45:10;;;;;;;22.52;6.53;;;;;;;26.10;36.78;98659.50;5113144;28;20058;-76
2022/07/14 01:47:36;;;;;;;24.50;7.00;;;;;;;26.18;36.78;98654.31;5079458;28;20077;-76
2022/07/14 01:50:04;;;;;;;21.75;7.15;;;;;;;26.28;36.75;98653.38;5096571;28;20055;-76
2022/07/14 01:52:35;;;;;;;18.45;6.90;;;;;;;26.40;36.42;98660.13;5097907;28;20075;-75
2022/07/14 01:55:01;;;;;;;20.10;6.30;;;;;;;26.40;36.41;98662.03;5067073;28;20047;-75
2022/07/14 01:57:29;;;;;;;18.02;6.93;;;;;;;26.49;36.28;98654.88;5096391;28;20047;-78
2022/07/14 01:59:59;;;;;;;24.80;7.43;;;;;;;26.59;36.27;98659.41;5099185;28;20063;-77
2022/07/14 02:02:26;;;;;;;26.95;6.93;;;;;;;26.59;36.38;98654.78;5081008;28;20039;-75
2022/07/14 02:04:54;;;;;;;24.88;6.93;;;;;;;26.63;36.26;98661.34;5080428;28;20047;-75
2022/07/14 02:07:23;;;;;;;25.92;8.43;;;;;;;26.01;38.13;98686.50;5097541;28;20040;-77
2022/07/14 02:12:44;;;;;;;11.13;5.90;;;;;;;25.41;39.31;98697.59;5095794;28;20039;-76
2022/07/14 02:15:11;;;;;;;18.50;6.90;;;;;;;25.50;39.27;98709.53;5091020;28;20181;-75
2022/07/14 02:17:39;;;;;;;13.10;6.90;;;;;;;25.39;39.01;98717.97;5063363;28;20032;-74
2022/07/14 02:20:06;;;;;;;13.85;5.15;;;;;;;25.48;38.67;98732.66;5077856;28;20058;-74
2022/07/14 02:22:32;;;;;;;16.13;4.70;;;;;;;25.27;37.19;98734.56;5077805;28;20130;-73
2022/07/14 02:24:59;;;;;;;15.88;4.95;;;;;;;25.18;38.25;98743.56;5077495;28;20112;-74
2022/07/14 02:27:25;;;;;;;13.70;5.57;;;;;;;25.20;38.27;98716.94;5094921;28;20048;-74
2022/07/14 02:29:52;;;;;;;9.05;5.00;;;;;;;25.27;38.27;98720.97;5060555;28;20134;-75
2022/07/14 02:32:19;;;;;;;11.43;5.00;;;;;;;25.39;38.05;98746.00;5077379;28;20130;-76
2022/07/14 02:34:46;;;;;;;12.98;5.57;;;;;;;25.38;38.25;98727.25;5063369;28;20052;-76
2022/07/14 02:37:13;;;;;;;11.63;5.15;;;;;;;25.45;37.48;98733.22;5078169;28;20044;-75
2022/07/14 02:39:39;;;;;;;10.43;4.32;;;;;;;25.55;36.85;98733.19;5076349;28;20051;-75
2022/07/14 02:42:06;;;;;;;10.50;4.65;;;;;;;25.67;36.85;98717.38;5092794;28;20073;-75
2022/07/14 02:44:33;;;;;;;8.32;4.13;;;;;;;25.81;37.31;98710.25;5059759;28;20586;-73
2022/07/14 02:46:58;;;;;;;8.50;4.60;;;;;;;25.91;36.98;98702.84;5093020;28;20126;-75
2022/07/14 02:49:25;;;;;;;8.35;4.30;;;;;;;26.04;37.00;98698.75;5076142;28;20043;-76
2022/07/14 02:51:52;;;;;;;7.45;4.00;;;;;;;26.09;36.27;98696.78;5076125;28;20109;-75
2022/07/14 02:54:18;;;;;;;12.77;4.15;;;;;;;26.11;36.06;98685.63;5076233;28;20112;-76
2022/07/14 02:56:45;;;;;;;14.40;4.20;;;;;;;26.16;36.10;98686.41;5077254;28;20031;-76
2022/07/14 02:59:11;;;;;;;13.00;4.00;;;;;;;26.32;36.12;98682.50;5076798;28;20479;-75
2022/07/14 03:01:41;;;;;;;9.40;4.00;;;;;;;26.28;35.85;98681.44;5061365;28;20564;-76
2022/07/14 03:04:12;;;;;;;7.88;4.07;;;;;;;26.29;35.63;98676.81;5061921;28;20096;-75
2022/07/14 03:06:38;;;;;;;11.68;3.70;;;;;;;26.39;35.56;98680.28;5095168;28;20051;-77
2022/07/14 03:09:05;;;;;;;13.60;4.38;;;;;;;26.48;35.32;98679.69;5078267;28;20507;-76
2022/07/14 03:11:32;;;;;;;13.52;4.22;;;;;;;26.60;35.39;98680.91;5112010;28;20047;-77
2022/07/14 03:13:59;;;;;;;8.68;3.50;;;;;;;26.61;34.11;98679.03;5076602;28;20047;-75
2022/07/14 03:16:25;;;;;;;7.18;3.67;;;;;;;26.73;33.95;98665.88;5076702;28;20493;-75
2022/07/14 03:18:54;;;;;;;7.43;3.42;;;;;;;26.82;34.13;98670.44;5078006;28;20047;-79
2022/07/14 03:21:23;;;;;;;8.43;3.78;;;;;;;27.18;33.70;98673.63;5094795;28;20047;-79
2022/07/14 03:23:52;;;;;;;11.25;3.40;;;;;;;27.05;33.70;98661.50;5111872;28;20518;-78
2022/07/14 03:26:22;;;;;;;7.20;3.80;;;;;;;27.19;33.32;98659.72;5077127;28;20043;-78
2022/07/14 03:28:48;;;;;;;5.78;3.53;;;;;;;27.25;33.49;98647.69;5094208;28;20082;-78
2022/07/14 03:31:15;;;;;;;9.93;3.58;;;;;;;27.26;33.35;98643.03;5077484;28;20051;-75
2022/07/14 03:33:45;;;;;;;6.72;3.35;;;;;;;27.38;33.44;98635.25;5078222;28;20104;-75
2022/07/14 03:36:10;;;;;;;12.90;3.67;;;;;;;27.54;33.35;98636.69;5077603;28;20131;-75
2022/07/14 03:38:36;;;;;;;5.97;3.45;;;;;;;27.59;32.96;98636.63;5059454;28;20142;-75
2022/07/14 03:41:05;;;;;;;9.32;3.70;;;;;;;27.92;32.64;98643.88;5060459;28;20069;-75
2022/07/14 03:43:32;;;;;;;10.57;3.88;;;;;;;27.93;32.64;98646.31;5094946;28;20097;-76
2022/07/14 03:46:01;;;;;;;9.88;3.38;;;;;;;28.03;32.76;98650.81;5112162;28;20453;-76
2022/07/14 03:48:30;;;;;;;9.25;3.38;;;;;;;28.13;32.63;98649.84;5063354;28;20035;-75
2022/07/14 03:51:00;;;;;;;9.40;3.78;;;;;;;28.20;32.34;98648.38;5098293;28;20043;-76
2022/07/14 03:53:30;;;;;;;9.70;4.28;;;;;;;28.09;32.83;98644.19;5063961;28;20114;-75
2022/07/14 03:55:57;;;;;;;12.23;4.65;;;;;;;28.08;32.39;98634.34;5096984;28;20087;-75
2022/07/14 03:58:24;;;;;;;11.38;3.35;;;;;;;27.98;32.47;98643.50;5096825;28;20100;-76
2022/07/14 04:00:51;;;;;;;11.73;3.55;;;;;;;27.97;32.77;98646.53;5080265;28;20095;-76
2022/07/14 04:03:17;;;;;;;6.57;3.03;;;;;;;27.94;32.35;98644.38;5097829;28;20054;-80
2022/07/14 04:05:47;;;;;;;7.80;3.55;;;;;;;27.91;32.64;98634.88;5081586;28;20035;-79
2022/07/14 04:08:15;;;;;;;10.23;4.03;;;;;;;27.90;32.70;98626.97;5081354;28;20039;-77
2022/07/14 04:10:45;;;;;;;15.73;4.28;;;;;;;27.95;32.44;98629.63;5064588;28;20948;-79
2022/07/14 04:13:11;;;;;;;7.32;3.72;;;;;;;28.02;32.73;98621.88;5080852;28;20077;-76
2022/07/14 04:15:38;;;;;;;14.13;4.53;;;;;;;28.23;32.79;98620.47;5079648;28;20410;-76
2022/07/14 04:18:04;;;;;;;13.00;4.70;;;;;;;28.24;32.81;98611.19;5097243;28;20415;-76
2022/07/14 04:20:30;;;;;;;16.95;5.05;;;;;;;28.25;32.87;98609.28;5080275;28;20492;-76
2022/07/14 04:22:56;;;;;;;13.18;5.25;;;;;;;28.36;32.66;98610.72;5062960;28;20043;-75
2022/07/14 04:25:23;;;;;;;13.90;5.35;;;;;;;28.39;32.62;98600.00;5063301;28;20044;-76
2022/07/14 04:27:49;;;;;;;12.27;5.32;;;;;;;28.58;32.49;98602.72;5079321;28;20491;-74
2022/07/14 04:30:15;;;;;;;16.85;5.85;;;;;;;28.68;31.81;98595.16;5079137;28;20040;-77
2022/07/14 04:32:42;;;;;;;18.60;4.90;;;;;;;28.73;32.08;98597.81;5084480;28;20039;-78
2022/07/14 04:35:10;;;;;;;13.80;5.13;;;;;;;28.71;32.10;98569.16;5085775;28;20039;-78
2022/07/14 04:37:36;;;;;;;12.35;5.15;;;;;;;28.96;32.55;98593.28;5116787;28;20052;-77
2022/07/14 04:40:10;;;;;;;14.65;5.30;;;;;;;29.00;32.37;98578.72;5085132;28;20035;-80
2022/07/14 04:42:36;;;;;;;16.23;5.25;;;;;;;29.08;32.16;98583.50;5081327;28;20043;-79
2022/07/14 04:45:03;;;;;;;12.57;4.68;;;;;;;29.20;32.42;98583.81;5080895;28;20035;-79
2022/07/14 04:47:30;;;;;;;17.52;4.93;;;;;;;29.14;31.94;98582.28;5080025;28;20043;-79
2022/07/14 04:52:48;;;;;;;15.48;5.25;;;;;;;29.44;31.44;98581.69;5071523;28;20046;-78
2022/07/14 04:55:33;;;;;;;11.25;4.88;;;;;;;29.36;31.45;98587.06;5090294;28;20507;-76
2022/07/14 04:58:08;;;;;;;16.42;5.47;;;;;;;29.40;31.29;98579.84;5047496;28;20040;-71
2022/07/14 05:00:34;;;;;;;10.82;4.32;;;;;;;29.52;31.61;98585.63;5094522;28;20507;-71
2022/07/14 05:03:00;;;;;;;11.88;4.90;;;;;;;29.54;31.19;98576.00;5076673;28;20039;-72
2022/07/14 05:05:26;;;;;;;17.02;4.93;;;;;;;29.57;31.13;98575.38;5060573;28;20142;-71
2022/07/14 05:07:52;;;;;;;13.75;4.85;;;;;;;29.66;31.25;98575.50;5060399;28;20715;-70
2022/07/14 05:10:23;;;;;;;15.13;6.00;;;;;;;29.68;31.22;98575.19;5094735;28;20055;-71
2022/07/14 05:12:50;;;;;;;21.15;6.30;;;;;;;29.73;31.33;98564.13;5059660;28;20039;-70
2022/07/14 05:15:16;;;;;;;18.25;6.63;;;;;;;29.85;31.45;98565.19;5094180;28;20341;-72
2022/07/14 05:17:43;;;;;;;20.65;6.47;;;;;;;29.94;31.04;98559.81;5094110;28;20054;-74
2022/07/14 05:20:12;;;;;;;16.48;7.57;;;;;;;30.02;31.13;98564.53;5077940;28;20047;-71
2022/07/14 05:22:40;;;;;;;18.17;6.65;;;;;;;30.18;31.37;98557.59;5077476;28;20070;-72
2022/07/14 05:25:10;;;;;;;15.50;6.53;;;;;;;30.19;31.38;98549.06;5044892;28;20031;-71
2022/07/14 05:27:37;;;;;;;15.98;6.70;;;;;;;30.18;31.43;98552.94;5077357;28;20051;-70
2022/07/14 05:30:08;;;;;;;21.00;7.10;;;;;;;30.51;31.33;98548.00;5076666;28;20056;-70
2022/07/14 05:32:35;;;;;;;16.90;6.22;;;;;;;30.45;31.22;98546.50;5061475;28;20051;-70
2022/07/14 05:35:05;;;;;;;14.27;5.90;;;;;;;30.60;30.86;98554.38;5060095;28;20039;-71
2022/07/14 05:37:32;;;;;;;17.30;6.63;;;;;;;30.56;30.84;98556.91;5076398;28;20096;-70
2022/07/14 05:40:00;;;;;;;19.30;6.50;;;;;;;30.75;30.33;98548.50;5043841;28;20048;-70
2022/07/14 05:42:29;;;;;;;18.67;6.60;;;;;;;30.88;30.32;98556.63;5059858;28;21074;-71
2022/07/14 05:44:55;;;;;;;18.98;5.85;;;;;;;30.99;29.94;98541.50;5059731;28;20046;-71
2022/07/14 05:47:21;;;;;;;19.73;6.53;;;;;;;31.15;29.57;98553.66;5076298;28;20055;-71
2022/07/14 05:49:47;;;;;;;19.67;6.47;;;;;;;31.22;28.99;98549.63;5059578;28;20138;-71
2022/07/14 05:52:14;;;;;;;18.10;6.85;;;;;;;31.54;28.69;98539.09;5059518;28;20566;-71
2022/07/14 05:54:40;;;;;;;20.23;7.05;;;;;;;31.74;28.51;98541.22;5076300;28;20071;-72
2022/07/14 05:57:13;;;;;;;25.70;6.70;;;;;;;31.86;28.20;98546.13;5076598;28;20130;-73
2022/07/14 05:59:40;;;;;;;20.05;6.60;;;;;;;31.99;28.17;98534.16;5077261;28;20099;-71
2022/07/14 06:02:08;;;;;;;20.73;7.00;;;;;;;32.14;28.11;98537.22;5094036;28;20043;-72
2022/07/14 06:04:34;;;;;;;18.63;6.38;;;;;;;32.29;27.89;98546.91;5075909;28;20613;-71
2022/07/14 06:07:01;;;;;;;18.65;6.75;;;;;;;32.40;27.89;98543.50;5062370;28;20035;-71
2022/07/14 06:09:27;;;;;;;24.77;7.68;;;;;;;32.44;27.77;98543.69;5075981;28;20103;-72
2022/07/14 06:11:53;;;;;;;29.77;6.90;;;;;;;32.51;27.54;98535.72;5074934;28;20054;-72
2022/07/14 06:14:22;;;;;;;17.92;6.15;;;;;;;32.36;26.75;98514.25;5059419;28;20146;-74
2022/07/14 06:16:48;;;;;;;17.92;5.32;;;;;;;32.50;26.12;98534.94;5073651;28;20510;-72
2022/07/14 06:19:14;;;;;;;11.90;4.93;;;;;;;32.60;25.77;98529.06;5075769;28;20047;-74
2022/07/14 06:21:40;;;;;;;17.63;4.75;;;;;;;32.91;25.43;98539.00;5060075;28;20149;-74
2022/07/14 06:24:06;;;;;;;11.93;4.45;;;;;;;32.98;24.63;98540.13;5060280;28;20048;-75
2022/07/14 06:26:34;;;;;;;20.35;4.15;;;;;;;32.78;24.87;98535.34;5093231;28;20055;-73
2022/07/14 06:29:01;;;;;;;13.07;4.40;;;;;;;32.20;25.53;98535.91;5079949;28;20048;-72
2022/07/14 06:31:27;;;;;;;17.02;5.10;;;;;;;32.42;25.66;98521.19;5108869;28;20053;-72
2022/07/14 06:33:52;;;;;;;13.30;4.05;;;;;;;32.56;24.92;98532.81;5041296;28;20628;-71
2022/07/14 06:36:41;;;;;;;17.90;4.47;;;;;;;32.26;24.95;98531.84;5088019;27;20039;-72
2022/07/14 06:39:09;;;;;;;12.40;4.40;;;;;;;32.53;25.41;98537.03;5089575;27;20095;-71
2022/07/14 06:41:35;;;;;;;11.70;3.88;;;;;;;32.50;25.14;98537.69;5101852;27;20047;-72
2022/07/14 06:44:02;;;;;;;10.60;4.10;;;;;;;32.44;25.51;98502.44;5074953;27;20046;-72
2022/07/14 06:46:34;;;;;;;16.00;4.00;;;;;;;32.81;25.39;98520.09;5089404;27;20518;-71
2022/07/14 06:49:00;;;;;;;14.43;5.47;;;;;;;33.08;24.83;98523.25;5105816;27;20047;-72
2022/07/14 06:51:26;;;;;;;13.65;3.88;;;;;;;33.18;24.71;98524.81;5109083;27;20051;-71
2022/07/14 06:53:52;;;;;;;14.32;3.90;;;;;;;33.48;24.32;98519.00;5093951;28;20491;-68
2022/07/14 06:56:18;;;;;;;12.35;4.22;;;;;;;33.83;24.20;98514.84;5074438;28;20085;-72
2022/07/14 06:58:44;;;;;;;13.40;4.22;;;;;;;34.04;24.20;98506.59;5075677;27;20087;-72
2022/07/14 07:01:10;;;;;;;10.27;3.85;;;;;;;34.40;23.60;98503.97;5096596;27;20046;-71
2022/07/14 07:03:35;;;;;;;10.40;3.95;;;;;;;34.44;24.46;98491.16;5097353;28;20415;-72
2022/07/14 07:08:45;;;;;;;9.98;4.22;;;;;;;33.66;24.68;98528.75;5103541;28;20043;-70
2022/07/14 07:11:11;;;;;;;11.85;4.30;;;;;;;32.81;26.44;98531.09;5117152;27;20553;-70
2022/07/14 07:13:37;;;;;;;14.18;4.18;;;;;;;32.44;26.77;98527.97;5052906;28;20108;-71
2022/07/14 07:16:04;;;;;;;13.98;4.38;;;;;;;32.08;27.15;98524.78;5097390;28;20042;-71
2022/07/14 07:18:31;;;;;;;10.63;3.80;;;;;;;31.18;28.59;98528.31;5084793;28;20526;-72
2022/07/14 07:21:08;;;;;;;9.18;4.43;;;;;;;31.23;28.41;98501.88;5066091;27;20144;-70
2022/07/14 07:23:54;;;;;;;12.43;4.32;;;;;;;31.36;28.66;98518.25;5094095;28;20070;-73
2022/07/14 07:26:22;;;;;;;13.23;4.25;;;;;;;31.72;28.31;98491.31;5073070;28;20046;-71
2022/07/14 07:28:49;;;;;;;17.65;5.10;;;;;;;32.32;27.43;98483.03;5101237;28;20089;-71
2022/07/14 07:31:15;;;;;;;14.70;4.53;;;;;;;32.93;27.13;98490.81;5064477;28;20503;-71
2022/07/14 07:33:41;;;;;;;15.85;3.88;;;;;;;33.67;25.60;98482.75;5084706;28;20071;-70
2022/07/14 07:36:07;;;;;;;10.82;4.00;;;;;;;34.44;24.54;98484.81;5097234;28;20040;-72
2022/07/14 07:38:32;;;;;;;9.05;4.05;;;;;;;35.06;23.65;98482.63;5068310;28;20039;-71
2022/07/14 07:41:01;;;;;;;11.13;3.90;;;;;;;35.57;22.81;98482.69;5053495;28;20587;-71
2022/07/14 07:43:27;;;;;;;7.78;3.30;;;;;;;36.01;21.76;98449.63;5049513;28;20599;-72
2022/07/14 07:45:53;;;;;;;18.02;4.60;;;;;;;36.51;21.09;98469.19;5099355;28;20046;-72
2022/07/14 07:48:19;;;;;;;12.02;3.72;;;;;;;36.72;20.79;98459.47;5062946;28;20035;-73
2022/07/14 07:50:45;;;;;;;10.05;3.45;;;;;;;37.05;20.38;98464.66;5088345;28;20048;-72
2022/07/14 07:53:14;;;;;;;10.35;3.60;;;;;;;37.61;20.10;98457.66;5088709;28;20069;-73
2022/07/14 07:55:40;;;;;;;8.45;3.08;;;;;;;38.45;18.91;98456.63;5087952;28;20466;-72
2022/07/14 07:58:07;;;;;;;8.85;3.72;;;;;;;40.05;17.80;98455.91;5071985;28;20076;-73
2022/07/14 08:00:33;;;;;;;14.57;3.50;;;;;;;42.02;16.08;98468.66;5072223;28;20175;-73
2022/07/14 08:03:00;;;;;;;12.93;3.03;;;;;;;43.86;14.36;98471.09;5107163;28;20039;-72
2022/07/14 08:05:31;;;;;;;8.30;3.42;;;;;;;45.21;13.17;98455.88;5054497;28;20043;-73
2022/07/14 08:07:57;;;;;;;18.05;3.15;;;;;;;45.50;12.88;98454.38;5088870;28;20043;-72
2022/07/14 08:10:23;;;;;;;12.65;2.97;;;;;;;44.56;13.26;98460.34;5071397;28;20132;-72
2022/07/14 08:12:52;;;;;;;7.88;2.83;;;;;;;42.55;14.44;98447.28;5071126;28;20040;-72
2022/07/14 08:15:18;;;;;;;12.27;2.47;;;;;;;40.45;16.37;98432.88;5073993;28;20042;-72
2022/07/14 08:17:44;;;;;;;14.30;3.20;;;;;;;39.64;17.60;98443.06;5088697;28;20052;-72
2022/07/14 08:20:10;;;;;;;12.63;3.25;;;;;;;39.29;18.17;98442.56;5071870;28;20104;-72
2022/07/14 08:22:37;;;;;;;8.30;2.60;;;;;;;39.17;17.55;98442.75;5037592;28;20111;-72
2022/07/14 08:25:06;;;;;;;8.95;2.30;;;;;;;38.04;18.21;98434.41;5038084;28;20043;-72
2022/07/14 08:27:32;;;;;;;4.88;2.15;;;;;;;37.79;19.02;98433.09;5055469;28;20051;-72
2022/07/14 08:29:58;;;;;;;4.90;2.40;;;;;;;37.63;19.31;98421.28;5088059;28;20040;-72
2022/07/14 08:32:39;;;;;;;7.30;2.28;;;;;;;38.69;18.74;98424.91;5054556;28;20043;-72
2022/07/14 08:35:08;;;;;;;5.43;2.28;;;;;;;38.87;17.61;98417.69;5073293;28;20442;-72
2022/07/14 08:37:34;;;;;;;10.80;2.25;;;;;;;37.44;18.31;98413.75;5091622;28;20043;-73
2022/07/14 08:40:06;;;;;;;8.27;2.40;;;;;;;36.98;18.91;98386.97;5074150;28;20078;-73
2022/07/14 08:42:32;;;;;;;6.57;2.65;;;;;;;36.40;19.87;98394.22;5074573;28;20093;-72
2022/07/14 08:44:59;;;;;;;6.43;2.00;;;;;;;36.60;19.98;98404.22;5091218;28;20044;-72
2022/07/14 08:47:25;;;;;;;6.13;2.15;;;;;;;36.30;20.58;98393.97;5074556;28;20035;-71
2022/07/14 08:49:51;;;;;;;10.75;2.63;;;;;;;37.20;19.33;98384.31;5092450;28;20043;-72
2022/07/14 08:52:17;;;;;;;6.95;2.30;;;;;;;37.73;17.39;98399.34;5092157;28;20062;-71
2022/07/14 08:54:47;;;;;;;5.22;2.50;;;;;;;38.44;17.54;98407.03;5074831;28;20039;-71
2022/07/14 08:57:13;;;;;;;5.60;2.60;;;;;;;38.27;17.10;98380.56;5057740;28;20051;-69
2022/07/14 08:59:40;;;;;;;9.93;2.38;;;;;;;37.88;17.92;98392.91;5109098;28;20542;-70
2022/07/14 09:02:06;;;;;;;9.70;2.33;;;;;;;37.86;18.01;98381.38;5091740;28;20040;-69
2022/07/14 09:04:32;;;;;;;9.02;2.20;;;;;;;37.44;18.38;98391.59;5075381;28;20531;-69
2022/07/14 09:06:58;;;;;;;5.78;2.10;;;;;;;37.47;18.33;98377.00;5040148;28;20047;-69
2022/07/14 09:09:31;;;;;;;6.07;1.95;;;;;;;37.72;18.16;98372.78;5056166;28;20067;-70
2022/07/14 09:12:01;;;;;;;10.15;2.40;;;;;;;38.02;18.06;98368.22;5108766;28;20043;-70
2022/07/14 09:15:44;;;;;;;8.70;2.42;;;;;;;37.63;18.03;98363.06;5091900;28;20415;-69
2022/07/14 09:17:17;;;;;;;5.50;2.38;;;;;;;37.35;18.08;98346.66;5059870;28;20039;-71
2022/07/14 09:20:03;;;;;;;6.88;2.15;;;;;;;37.72;18.00;98347.06;5057877;28;20054;-70
2022/07/14 09:22:32;;;;;;;9.35;2.40;;;;;;;36.22;19.30;98345.13;5072707;28;20070;-70
2022/07/14 09:24:58;;;;;;;11.27;2.30;;;;;;;35.98;19.39;98331.47;5091299;28;20050;-68
2022/07/14 09:27:24;;;;;;;7.35;2.08;;;;;;;35.73;20.14;98312.25;5100483;27;20411;-74
2022/07/14 09:29:56;;;;;;;5.82;2.20;;;;;;;35.88;19.78;98323.69;5094197;27;20080;-71
2022/07/14 09:33:10;;;;;;;7.43;2.50;;;;;;;35.41;20.74;98315.31;5061085;27;20043;-72
2022/07/14 09:35:38;;;;;;;4.90;2.35;;;;;;;34.66;20.85;98324.41;5084829;27;20047;-70
2022/07/14 09:38:17;;;;;;;8.27;2.20;;;;;;;34.34;21.41;98315.09;5073636;27;20043;-73
2022/07/14 09:40:44;;;;;;;7.72;2.30;;;;;;;34.15;22.06;98320.38;5090939;28;20043;-71
2022/07/14 09:43:13;;;;;;;9.13;3.00;;;;;;;34.42;22.15;98322.47;5056773;28;20406;-74
2022/07/14 09:45:45;;;;;;;5.93;2.58;;;;;;;34.90;21.64;98330.72;5074179;28;20047;-73
2022/07/14 09:48:12;;;;;;;7.35;2.42;;;;;;;34.84;21.44;98336.81;5108852;28;20126;-71
2022/07/14 09:50:48;;;;;;;3.67;2.03;;;;;;;34.67;20.87;98348.09;5065753;27;20097;-72
2022/07/14 09:53:16;;;;;;;6.00;2.25;;;;;;;34.53;20.99;98344.88;5066461;28;20104;-78
2022/07/14 09:55:57;;;;;;;8.02;2.30;;;;;;;34.70;20.77;98339.13;5065063;28;20040;-72
2022/07/14 09:58:40;;;;;;;4.35;2.20;;;;;;;34.92;20.23;98344.19;5090309;28;20486;-72
2022/07/14 10:01:11;;;;;;;5.35;2.20;;;;;;;34.91;20.57;98351.66;5073558;28;20051;-72
2022/07/14 10:03:40;;;;;;;4.53;1.90;;;;;;;34.99;20.57;98353.47;5073445;28;20075;-71
2022/07/14 10:06:06;;;;;;;3.05;1.80;;;;;;;34.79;20.36;98348.88;5090452;28;20101;-72
2022/07/14 10:08:36;;;;;;;4.78;2.63;;;;;;;34.90;20.64;98343.72;5047936;28;20043;-71
2022/07/14 10:11:05;;;;;;;;;;;;;;;34.73;21.19;98350.28;5089610;28;20146;-72
2022/07/14 10:13:31;;;;;;;4.97;2.40;;;;;;;34.82;20.89;98348.19;5056372;28;20412;-70
2022/07/14 10:15:58;;;;;;;3.45;2.17;;;;;;;34.81;20.76;98319.00;5089454;28;20054;-71
2022/07/14 10:18:25;;;;;;;10.88;2.60;;;;;;;34.82;20.97;98337.16;5072937;28;20103;-70
2022/07/14 10:20:54;;;;;;;4.40;2.28;;;;;;;34.52;21.24;98330.25;5072810;28;20043;-71
2022/07/14 10:23:20;;;;;;;3.15;2.13;;;;;;;33.80;21.48;98338.41;5054501;28;20039;-70
2022/07/14 10:25:48;;;;;;;8.20;2.10;;;;;;;33.17;22.18;98333.34;5072819;28;20046;-71
2022/07/14 10:28:15;;;;;;;5.80;1.95;;;;;;;32.87;23.07;98359.25;5056755;28;20039;-71
2022/07/14 10:30:58;;;;;;;3.75;2.00;;;;;;;32.02;24.09;98360.44;5056874;28;20043;-72
2022/07/14 10:33:43;;;;;;;7.55;2.20;;;;;;;31.75;25.13;98347.91;5055874;28;20071;-71
2022/07/14 10:36:37;;;;;;;5.63;2.72;;;;;;;31.34;26.42;98364.06;5038921;28;20043;-72
2022/07/14 10:39:05;;;;;;;5.05;2.40;;;;;;;30.69;27.31;98383.28;5072400;28;20031;-71
2022/07/14 10:41:31;;;;;;;7.63;2.33;;;;;;;30.22;28.87;98413.41;5072401;28;20043;-71
2022/07/14 10:44:17;;;;;;;4.45;2.38;;;;;;;30.00;29.65;98391.53;5072038;28;20047;-71
2022/07/14 10:46:44;;;;;;;4.05;2.53;;;;;;;29.71;30.59;98380.25;5061401;28;20050;-73
2022/07/14 10:49:12;;;;;;;8.32;2.88;;;;;;;29.59;32.03;98373.38;5096305;27;20114;-71
2022/07/14 10:51:44;;;;;;;5.70;2.80;;;;;;;29.72;32.12;98354.50;5080765;27;20594;-72
2022/07/14 10:54:13;;;;;;;5.75;3.00;;;;;;;29.93;31.71;98355.56;5069606;28;20040;-71
2022/07/14 10:56:40;;;;;;;5.03;2.92;;;;;;;30.41;31.50;98354.53;5072721;28;20423;-74
2022/07/14 10:59:33;;;;;;;9.27;3.50;;;;;;;31.44;29.45;98328.09;5040078;28;20039;-74
2022/07/14 11:02:12;;;;;;;10.18;2.60;;;;;;;32.56;26.23;98368.66;5064303;28;20139;-71
2022/07/14 11:05:12;;;;;;;5.72;2.55;;;;;;;32.49;26.09;98342.81;5086297;28;20126;-70
2022/07/14 11:07:56;;;;;;;10.90;2.80;;;;;;;32.88;26.36;98345.19;5087933;28;20046;-70
2022/07/14 11:10:24;;;;;;;4.30;2.45;;;;;;;32.85;25.58;98358.75;5069182;28;20420;-70
2022/07/14 11:12:59;;;;;;;3.45;2.67;;;;;;;33.13;25.97;98346.13;5087273;28;20043;-70
2022/07/14 11:15:40;;;;;;;4.93;2.30;;;;;;;33.20;25.55;98355.47;5071308;28;20039;-71
2022/07/14 11:18:18;;;;;;;6.95;2.47;;;;;;;32.43;26.03;98333.13;5108934;27;20043;-72
2022/07/14 11:21:08;;;;;;;3.38;2.17;;;;;;;32.90;26.31;98347.59;5075430;28;20451;-71
2022/07/14 11:23:39;;;;;;;7.18;2.97;;;;;;;33.21;26.30;98331.50;5070454;28;20032;-73
2022/07/14 11:26:33;;;;;;;3.88;2.28;;;;;;;34.16;24.57;98353.09;5089389;28;20067;-74
2022/07/14 11:29:00;;;;;;;5.68;1.88;;;;;;;33.99;24.34;98342.28;5089259;28;20658;-72
2022/07/14 11:31:26;;;;;;;6.93;2.42;;;;;;;34.04;23.54;98338.50;5072000;28;20637;-73
2022/07/14 11:37:00;;;;;;;4.38;2.00;;;;;;;35.75;20.75;98361.66;5074847;28;20047;-72
2022/07/14 11:39:32;;;;;;;3.60;1.80;;;;;;;35.56;20.90;98348.50;5088148;28;20537;-73
2022/07/14 11:42:02;;;;;;;3.20;1.80;;;;;;;35.83;20.79;98349.63;5071727;28;20039;-73
2022/07/14 11:44:40;;;;;;;;;;;;;;;36.07;20.09;98345.94;5089559;28;20530;-73
2022/07/14 11:47:21;;;;;;;5.95;1.63;;;;;;;36.40;19.46;98346.38;5082168;28;20017;-72
2022/07/14 11:49:55;;;;;;;3.45;1.95;;;;;;;36.28;19.43;98346.47;5092877;28;20527;-73